Time;durP1;ratioP1;P1;durP2;ratioP2;P2;SDS_P1;SDS_P2;PMS_P1;PMS_P2;Temp;Humidity;BMP_temperature;BMP_pressure;BME280_temperature;BME280_humidity;BME280_pressure;Samples;Min_cycle;Max_cycle;Signal;HPM_P1;HPM_P2
2021/09/07 00:00:22;;;;;;;23.53;12.77;;;;;;;;;;4964682;28;20331;-82
2021/09/07 00:02:50;;;;;;;21.50;12.27;;;;;;;;;;4968510;28;20202;-83
2021/09/07 00:05:17;;;;;;;23.67;12.77;;;;;;;;;;4966811;28;20214;-83
2021/09/07 00:07:44;;;;;;;21.97;12.53;;;;;;;;;;4969473;28;20228;-83
2021/09/07 00:10:13;;;;;;;30.03;13.37;;;;;;;;;;4967975;28;20230;-83
2021/09/07 00:12:40;;;;;;;25.27;12.43;;;;;;;;;;4970070;28;20473;-84
2021/09/07 00:15:10;;;;;;;24.93;12.30;;;;;;;;;;4969190;28;20194;-83
2021/09/07 00:17:37;;;;;;;24.43;12.03;;;;;;;;;;4969917;28;20253;-83
2021/09/07 00:20:07;;;;;;;26.13;12.27;;;;;;;;;;4970872;28;20321;-84
2021/09/07 00:22:34;;;;;;;23.93;12.37;;;;;;;;;;4968909;28;20218;-83
2021/09/07 00:25:01;;;;;;;23.83;12.30;;;;;;;;;;4969513;28;20309;-83
2021/09/07 00:27:28;;;;;;;25.83;12.63;;;;;;;;;;4972273;28;20253;-83
2021/09/07 00:29:56;;;;;;;23.60;11.73;;;;;;;;;;4969633;28;20260;-82
2021/09/07 00:32:23;;;;;;;24.57;12.03;;;;;;;;;;4970439;28;20280;-83
2021/09/07 00:34:50;;;;;;;25.97;13.17;;;;;;;;;;4970475;28;20297;-83
2021/09/07 00:37:18;;;;;;;24.57;12.37;;;;;;;;;;4971431;28;20261;-82
2021/09/07 00:39:46;;;;;;;25.20;13.07;;;;;;;;;;4970778;28;20564;-83
2021/09/07 00:42:13;;;;;;;23.20;12.33;;;;;;;;;;4968372;28;20207;-82
2021/09/07 00:44:40;;;;;;;22.37;12.47;;;;;;;;;;4969305;28;20206;-83
2021/09/07 00:47:07;;;;;;;26.83;12.37;;;;;;;;;;4971206;28;20225;-82
2021/09/07 00:49:35;;;;;;;28.23;12.60;;;;;;;;;;4972602;28;20240;-82
2021/09/07 00:52:04;;;;;;;23.33;12.37;;;;;;;;;;4973383;28;20250;-82
2021/09/07 00:54:33;;;;;;;25.73;13.00;;;;;;;;;;4984021;28;20492;-82
2021/09/07 00:57:04;;;;;;;25.43;13.47;;;;;;;;;;4982033;28;20237;-81
2021/09/07 00:59:32;;;;;;;22.63;12.23;;;;;;;;;;4980719;28;20208;-82
2021/09/07 01:01:59;;;;;;;25.13;12.77;;;;;;;;;;4973152;28;20868;-82
2021/09/07 01:04:27;;;;;;;29.17;13.23;;;;;;;;;;4970380;28;20260;-82
2021/09/07 01:06:54;;;;;;;22.60;11.70;;;;;;;;;;4972165;28;20233;-82
2021/09/07 01:09:22;;;;;;;25.50;12.70;;;;;;;;;;4970302;28;20233;-82
2021/09/07 01:11:51;;;;;;;24.33;12.80;;;;;;;;;;4969091;28;20229;-83
2021/09/07 01:14:18;;;;;;;23.30;11.73;;;;;;;;;;4970445;28;20216;-83
2021/09/07 01:16:46;;;;;;;26.90;12.73;;;;;;;;;;4971326;28;20240;-83
2021/09/07 01:19:13;;;;;;;21.97;12.23;;;;;;;;;;4970294;28;20237;-83
2021/09/07 01:21:40;;;;;;;24.83;12.73;;;;;;;;;;4979414;28;20695;-83
2021/09/07 01:24:07;;;;;;;26.40;12.93;;;;;;;;;;4977056;28;20232;-82
2021/09/07 01:26:36;;;;;;;23.50;12.87;;;;;;;;;;4972719;28;20236;-83
2021/09/07 01:29:06;;;;;;;25.73;12.90;;;;;;;;;;4975781;28;20296;-84
2021/09/07 01:31:33;;;;;;;24.73;12.70;;;;;;;;;;4975686;28;20232;-83
2021/09/07 01:34:00;;;;;;;26.83;12.60;;;;;;;;;;4978242;28;20297;-83
2021/09/07 01:36:27;;;;;;;28.40;13.20;;;;;;;;;;4974359;28;20205;-83
2021/09/07 01:38:54;;;;;;;25.30;12.80;;;;;;;;;;4980009;28;20761;-84
2021/09/07 01:41:22;;;;;;;28.77;13.03;;;;;;;;;;4976747;28;20277;-84
2021/09/07 01:43:50;;;;;;;23.87;12.67;;;;;;;;;;4977004;28;20273;-84
2021/09/07 01:46:18;;;;;;;27.53;12.73;;;;;;;;;;4971798;28;20241;-84
2021/09/07 01:48:46;;;;;;;26.40;12.50;;;;;;;;;;4979185;28;20205;-82
2021/09/07 01:51:13;;;;;;;23.60;12.40;;;;;;;;;;4977032;28;20260;-84
2021/09/07 01:53:40;;;;;;;25.37;12.47;;;;;;;;;;4978322;28;20300;-83
2021/09/07 01:56:07;;;;;;;25.07;12.00;;;;;;;;;;4975596;28;20693;-83
2021/09/07 01:58:34;;;;;;;23.60;12.00;;;;;;;;;;4976345;28;20229;-84
2021/09/07 02:01:03;;;;;;;19.90;11.47;;;;;;;;;;4974242;28;20198;-83
2021/09/07 02:03:30;;;;;;;25.77;13.00;;;;;;;;;;4976670;28;21367;-81
2021/09/07 02:05:57;;;;;;;23.60;12.10;;;;;;;;;;4974161;28;20215;-81
2021/09/07 02:08:25;;;;;;;27.27;13.07;;;;;;;;;;4977913;28;20244;-82
2021/09/07 02:10:52;;;;;;;21.63;12.47;;;;;;;;;;4973081;28;20316;-81
2021/09/07 02:13:19;;;;;;;29.40;12.83;;;;;;;;;;4973008;28;20289;-82
2021/09/07 02:15:46;;;;;;;25.60;12.57;;;;;;;;;;4971016;28;20325;-82
2021/09/07 02:18:15;;;;;;;23.77;12.13;;;;;;;;;;4974324;28;20234;-82
2021/09/07 02:20:42;;;;;;;20.67;10.90;;;;;;;;;;4971377;28;20233;-82
2021/09/07 02:23:09;;;;;;;23.13;11.77;;;;;;;;;;4977735;28;20205;-82
2021/09/07 02:25:36;;;;;;;28.23;13.30;;;;;;;;;;4977524;28;20213;-82
2021/09/07 02:28:03;;;;;;;23.13;11.90;;;;;;;;;;4977894;28;20239;-83
2021/09/07 02:30:31;;;;;;;22.93;12.13;;;;;;;;;;4977631;28;20227;-83
2021/09/07 02:32:59;;;;;;;20.30;11.43;;;;;;;;;;4977805;28;20209;-83
2021/09/07 02:35:28;;;;;;;24.17;11.93;;;;;;;;;;4989903;28;20503;-80
2021/09/07 02:37:56;;;;;;;27.60;12.13;;;;;;;;;;4990096;28;20237;-81
2021/09/07 02:40:23;;;;;;;27.70;13.37;;;;;;;;;;4989799;28;20202;-83
2021/09/07 02:42:50;;;;;;;24.03;12.37;;;;;;;;;;4979370;28;20292;-82
2021/09/07 02:45:17;;;;;;;23.23;12.07;;;;;;;;;;4975291;28;20239;-82
2021/09/07 02:47:44;;;;;;;23.27;12.40;;;;;;;;;;4974712;28;20232;-82
2021/09/07 02:50:13;;;;;;;21.73;11.47;;;;;;;;;;4971940;28;20762;-82
2021/09/07 02:52:42;;;;;;;22.43;11.30;;;;;;;;;;4979085;28;20580;-82
2021/09/07 02:55:09;;;;;;;25.20;11.17;;;;;;;;;;4974711;28;21068;-83
2021/09/07 02:57:37;;;;;;;22.87;12.10;;;;;;;;;;4972778;28;20249;-83
2021/09/07 03:00:04;;;;;;;22.03;11.23;;;;;;;;;;4977567;28;20241;-82
2021/09/07 03:02:31;;;;;;;25.30;12.87;;;;;;;;;;4981475;28;20301;-82
2021/09/07 03:04:58;;;;;;;21.67;12.30;;;;;;;;;;4980938;28;20254;-83
2021/09/07 03:07:26;;;;;;;24.00;12.90;;;;;;;;;;4983164;28;20226;-84
2021/09/07 03:09:54;;;;;;;26.23;12.80;;;;;;;;;;4980932;28;20212;-84
2021/09/07 03:12:21;;;;;;;25.80;12.23;;;;;;;;;;4981967;28;20233;-83
2021/09/07 03:14:48;;;;;;;25.70;12.83;;;;;;;;;;4984462;28;20208;-84
2021/09/07 03:17:16;;;;;;;24.60;12.53;;;;;;;;;;4983745;28;20349;-84
2021/09/07 03:19:43;;;;;;;28.07;13.00;;;;;;;;;;4983577;28;20617;-84
2021/09/07 03:22:10;;;;;;;24.00;12.53;;;;;;;;;;4983152;28;20693;-84
2021/09/07 03:24:37;;;;;;;27.27;13.20;;;;;;;;;;4984421;28;20218;-84
2021/09/07 03:27:06;;;;;;;24.77;12.40;;;;;;;;;;4984617;28;20230;-84
2021/09/07 03:29:33;;;;;;;26.23;12.27;;;;;;;;;;4981229;28;20281;-84
2021/09/07 03:32:00;;;;;;;23.33;12.10;;;;;;;;;;4984181;28;20222;-83
2021/09/07 03:34:27;;;;;;;26.63;13.77;;;;;;;;;;4983480;28;20296;-83
2021/09/07 03:36:55;;;;;;;29.03;13.13;;;;;;;;;;4986560;28;20224;-82
2021/09/07 03:39:22;;;;;;;23.57;12.83;;;;;;;;;;4986348;28;20221;-82
2021/09/07 03:41:49;;;;;;;23.10;12.30;;;;;;;;;;4979619;28;20206;-83
2021/09/07 03:44:17;;;;;;;23.00;12.03;;;;;;;;;;4981382;28;20205;-83
2021/09/07 03:46:45;;;;;;;23.40;11.60;;;;;;;;;;4981848;28;20285;-82
2021/09/07 03:49:12;;;;;;;26.97;12.40;;;;;;;;;;4983159;28;20254;-83
2021/09/07 03:51:39;;;;;;;25.03;12.30;;;;;;;;;;4981074;28;20316;-83
2021/09/07 03:54:06;;;;;;;26.03;12.50;;;;;;;;;;4982961;28;20206;-82
2021/09/07 03:56:33;;;;;;;24.27;12.90;;;;;;;;;;4973721;28;20304;-82
2021/09/07 03:59:00;;;;;;;30.80;13.20;;;;;;;;;;4980064;28;20636;-82
2021/09/07 04:01:29;;;;;;;26.13;13.80;;;;;;;;;;4979775;28;20296;-83
2021/09/07 04:03:56;;;;;;;28.47;13.03;;;;;;;;;;4979572;28;20289;-83
2021/09/07 04:06:23;;;;;;;29.13;12.47;;;;;;;;;;4982626;28;20294;-84
2021/09/07 04:08:50;;;;;;;24.57;11.70;;;;;;;;;;4983678;28;20284;-84
2021/09/07 04:11:18;;;;;;;24.23;12.37;;;;;;;;;;4974991;28;20289;-84
2021/09/07 04:13:45;;;;;;;27.43;13.43;;;;;;;;;;4981314;28;20276;-85
2021/09/07 04:16:12;;;;;;;26.30;13.10;;;;;;;;;;4990583;28;20237;-85
2021/09/07 04:18:41;;;;;;;33.57;12.87;;;;;;;;;;4991646;28;20237;-85
2021/09/07 04:21:10;;;;;;;29.83;12.97;;;;;;;;;;4990328;28;20201;-85
2021/09/07 04:23:37;;;;;;;26.20;13.40;;;;;;;;;;4981195;28;20209;-84
2021/09/07 04:26:05;;;;;;;24.97;12.40;;;;;;;;;;4981249;28;20300;-85
2021/09/07 04:28:32;;;;;;;28.30;13.47;;;;;;;;;;4980290;28;20309;-84
2021/09/07 04:31:00;;;;;;;25.90;13.00;;;;;;;;;;4976575;28;20245;-84
2021/09/07 04:33:27;;;;;;;27.17;12.00;;;;;;;;;;4981288;28;20210;-85
2021/09/07 04:35:55;;;;;;;29.63;13.50;;;;;;;;;;4979931;28;20237;-84
2021/09/07 04:38:23;;;;;;;29.93;13.57;;;;;;;;;;4979702;28;20640;-84
2021/09/07 04:40:50;;;;;;;28.07;13.40;;;;;;;;;;4976714;28;20304;-85
2021/09/07 04:43:17;;;;;;;31.10;12.60;;;;;;;;;;4975304;28;20206;-85
2021/09/07 04:45:45;;;;;;;26.50;13.33;;;;;;;;;;4975715;28;20466;-85
2021/09/07 04:48:12;;;;;;;25.50;12.20;;;;;;;;;;4994736;28;20267;-85
2021/09/07 04:50:40;;;;;;;25.00;12.43;;;;;;;;;;4993488;28;20205;-85
2021/09/07 04:53:08;;;;;;;25.67;12.20;;;;;;;;;;4985580;28;20218;-84
2021/09/07 04:55:35;;;;;;;30.43;13.00;;;;;;;;;;4974171;28;20272;-85
2021/09/07 04:58:03;;;;;;;27.73;12.73;;;;;;;;;;4975377;28;20272;-84
2021/09/07 05:00:30;;;;;;;26.37;13.07;;;;;;;;;;4970480;28;20649;-86
2021/09/07 05:02:57;;;;;;;25.43;12.50;;;;;;;;;;4979452;28;20206;-85
2021/09/07 05:05:24;;;;;;;25.50;12.17;;;;;;;;;;4981440;28;20198;-86
2021/09/07 05:07:51;;;;;;;25.23;13.73;;;;;;;;;;4975520;28;20233;-85
2021/09/07 05:10:20;;;;;;;24.53;12.73;;;;;;;;;;4975538;28;20205;-86
2021/09/07 05:12:47;;;;;;;29.57;12.43;;;;;;;;;;4980918;28;20276;-86
2021/09/07 05:15:15;;;;;;;24.53;12.00;;;;;;;;;;4979075;28;20214;-86
2021/09/07 05:17:44;;;;;;;24.77;11.83;;;;;;;;;;4981546;28;20221;-83
2021/09/07 05:20:11;;;;;;;25.90;12.87;;;;;;;;;;4974786;28;20225;-84
2021/09/07 05:22:40;;;;;;;26.60;12.93;;;;;;;;;;4982625;28;20202;-85
2021/09/07 05:25:08;;;;;;;24.33;12.33;;;;;;;;;;4985026;28;20209;-85
2021/09/07 05:27:37;;;;;;;26.30;12.50;;;;;;;;;;4978376;28;20234;-85
2021/09/07 05:30:04;;;;;;;30.07;12.97;;;;;;;;;;4979186;28;20233;-85
2021/09/07 05:32:32;;;;;;;36.23;12.50;;;;;;;;;;4981349;28;20329;-86
2021/09/07 05:34:59;;;;;;;27.00;12.00;;;;;;;;;;4982993;28;20239;-86
2021/09/07 05:37:26;;;;;;;24.07;11.77;;;;;;;;;;4981064;28;20256;-85
2021/09/07 05:39:53;;;;;;;25.33;11.80;;;;;;;;;;4983431;28;20241;-84
2021/09/07 05:42:21;;;;;;;26.53;13.10;;;;;;;;;;4982718;28;20202;-85
2021/09/07 05:44:49;;;;;;;28.70;12.20;;;;;;;;;;4981105;28;20243;-83
2021/09/07 05:47:16;;;;;;;24.53;12.10;;;;;;;;;;4981713;28;20233;-84
2021/09/07 05:49:46;;;;;;;29.90;11.70;;;;;;;;;;4984412;28;20210;-84
2021/09/07 05:52:14;;;;;;;25.10;11.37;;;;;;;;;;4982603;28;20255;-84
2021/09/07 05:54:41;;;;;;;23.20;11.97;;;;;;;;;;4981803;28;20221;-85
2021/09/07 05:57:08;;;;;;;27.37;12.27;;;;;;;;;;4988507;28;20256;-84
2021/09/07 05:59:35;;;;;;;26.90;12.33;;;;;;;;;;4988594;28;20225;-84
2021/09/07 06:02:04;;;;;;;22.77;11.63;;;;;;;;;;4987144;28;20209;-85
2021/09/07 06:04:31;;;;;;;24.17;11.90;;;;;;;;;;4977893;28;20256;-85
2021/09/07 06:06:58;;;;;;;23.00;11.40;;;;;;;;;;4971299;28;20324;-84
2021/09/07 06:09:25;;;;;;;25.20;11.87;;;;;;;;;;4969089;28;20327;-84
2021/09/07 06:11:53;;;;;;;22.87;10.67;;;;;;;;;;4975839;28;20643;-84
2021/09/07 06:14:20;;;;;;;29.63;11.83;;;;;;;;;;4967572;28;20241;-84
2021/09/07 06:16:47;;;;;;;32.73;11.77;;;;;;;;;;4978702;28;20264;-84
2021/09/07 06:19:16;;;;;;;20.80;10.90;;;;;;;;;;4983785;28;20658;-85
2021/09/07 06:21:43;;;;;;;25.17;10.97;;;;;;;;;;4982539;28;20830;-84
2021/09/07 06:24:10;;;;;;;33.80;11.40;;;;;;;;;;4982672;28;20205;-84
2021/09/07 06:26:37;;;;;;;24.00;11.03;;;;;;;;;;4982739;28;20237;-83
2021/09/07 06:29:04;;;;;;;26.50;12.33;;;;;;;;;;4981003;28;20679;-84
2021/09/07 06:31:32;;;;;;;24.50;11.83;;;;;;;;;;4982468;28;20284;-84
2021/09/07 06:33:59;;;;;;;24.20;11.37;;;;;;;;;;4980817;28;20312;-84
2021/09/07 06:36:27;;;;;;;25.33;11.90;;;;;;;;;;4980159;28;20213;-85
2021/09/07 06:38:55;;;;;;;23.00;11.70;;;;;;;;;;4988158;28;20210;-85
2021/09/07 06:41:22;;;;;;;25.87;10.97;;;;;;;;;;4980446;28;20237;-85
2021/09/07 06:43:49;;;;;;;25.73;12.30;;;;;;;;;;4979852;28;20232;-85
2021/09/07 06:46:16;;;;;;;24.63;11.60;;;;;;;;;;4982560;28;20209;-84
2021/09/07 06:48:44;;;;;;;24.13;12.53;;;;;;;;;;4983658;28;20853;-85
2021/09/07 06:51:11;;;;;;;20.73;10.23;;;;;;;;;;4984869;28;20283;-85
2021/09/07 06:53:39;;;;;;;22.60;12.27;;;;;;;;;;4982966;28;20316;-85
2021/09/07 06:56:07;;;;;;;20.93;10.60;;;;;;;;;;4985222;28;20277;-85
2021/09/07 06:58:34;;;;;;;23.23;11.83;;;;;;;;;;4987381;28;20241;-85
2021/09/07 07:01:01;;;;;;;26.67;11.33;;;;;;;;;;4983017;28;20596;-85
2021/09/07 07:03:30;;;;;;;26.53;12.07;;;;;;;;;;4986026;28;20262;-86
2021/09/07 07:05:57;;;;;;;20.30;11.17;;;;;;;;;;4983360;28;20213;-85
2021/09/07 07:08:25;;;;;;;27.10;11.63;;;;;;;;;;4989149;28;20336;-85
2021/09/07 07:10:53;;;;;;;21.47;11.83;;;;;;;;;;4986466;28;20223;-86
2021/09/07 07:13:20;;;;;;;19.23;11.30;;;;;;;;;;4991859;28;20231;-86
2021/09/07 07:15:48;;;;;;;25.53;11.93;;;;;;;;;;4989221;28;20728;-85
2021/09/07 07:18:15;;;;;;;23.60;11.80;;;;;;;;;;4989443;28;20218;-86
2021/09/07 07:20:42;;;;;;;20.83;12.37;;;;;;;;;;4982514;28;20212;-86
2021/09/07 07:23:09;;;;;;;21.03;10.53;;;;;;;;;;4996278;28;20232;-85
2021/09/07 07:25:37;;;;;;;25.27;12.13;;;;;;;;;;4984148;28;20801;-86
2021/09/07 07:28:06;;;;;;;25.00;11.90;;;;;;;;;;4991903;28;20230;-86
2021/09/07 07:30:33;;;;;;;18.00;9.50;;;;;;;;;;4989401;28;20204;-86
2021/09/07 07:33:01;;;;;;;18.03;11.67;;;;;;;;;;4994553;28;20232;-86
2021/09/07 07:35:28;;;;;;;26.67;11.53;;;;;;;;;;4991067;28;20218;-85
2021/09/07 07:37:55;;;;;;;24.30;11.30;;;;;;;;;;4992730;28;20225;-86
2021/09/07 07:40:23;;;;;;;24.30;12.60;;;;;;;;;;4993199;28;20210;-85
2021/09/07 07:42:50;;;;;;;25.53;12.77;;;;;;;;;;4995483;28;20209;-85
2021/09/07 07:45:19;;;;;;;23.23;11.03;;;;;;;;;;4990697;28;20210;-85
2021/09/07 07:47:46;;;;;;;19.00;10.80;;;;;;;;;;4983330;28;20238;-86
2021/09/07 07:50:14;;;;;;;24.03;11.90;;;;;;;;;;4984076;28;20214;-85
2021/09/07 07:52:41;;;;;;;25.83;12.07;;;;;;;;;;4992030;28;20224;-85
2021/09/07 07:55:08;;;;;;;23.30;11.90;;;;;;;;;;4986327;28;20198;-92
2021/09/07 07:57:36;;;;;;;22.97;11.87;;;;;;;;;;4989151;28;20268;-84
2021/09/07 08:00:03;;;;;;;20.07;11.67;;;;;;;;;;4985128;28;20206;-84
2021/09/07 08:02:32;;;;;;;29.23;11.90;;;;;;;;;;4983417;28;20197;-84
2021/09/07 08:04:59;;;;;;;28.17;12.30;;;;;;;;;;4987119;28;20209;-84
2021/09/07 08:07:26;;;;;;;23.80;12.53;;;;;;;;;;4983044;28;20234;-83
2021/09/07 08:09:53;;;;;;;25.73;12.60;;;;;;;;;;4979712;28;20221;-84
2021/09/07 08:12:22;;;;;;;26.97;13.07;;;;;;;;;;4983183;28;20224;-84
2021/09/07 08:14:49;;;;;;;30.03;13.00;;;;;;;;;;4985098;28;20209;-84
2021/09/07 08:17:16;;;;;;;22.90;12.17;;;;;;;;;;4975433;28;20296;-85
2021/09/07 08:19:45;;;;;;;26.43;12.23;;;;;;;;;;4982280;28;20641;-84
2021/09/07 08:22:14;;;;;;;25.33;12.43;;;;;;;;;;4974303;28;20303;-83
2021/09/07 08:24:41;;;;;;;22.73;12.60;;;;;;;;;;4976694;28;20210;-83
2021/09/07 08:27:08;;;;;;;20.43;11.77;;;;;;;;;;4975120;28;20251;-85
2021/09/07 08:29:35;;;;;;;20.93;11.60;;;;;;;;;;4979357;28;20218;-84
2021/09/07 08:32:02;;;;;;;22.70;12.97;;;;;;;;;;4978548;28;20227;-84
2021/09/07 08:34:30;;;;;;;27.90;12.30;;;;;;;;;;4980588;28;20234;-88
2021/09/07 08:36:58;;;;;;;22.43;12.00;;;;;;;;;;4995576;28;20536;-85
2021/09/07 08:39:25;;;;;;;18.97;10.97;;;;;;;;;;4999754;28;20197;-85
2021/09/07 08:41:53;;;;;;;22.70;10.53;;;;;;;;;;5000606;28;20186;-85
2021/09/07 08:44:20;;;;;;;23.17;12.13;;;;;;;;;;4984879;28;20224;-84
2021/09/07 08:46:48;;;;;;;21.80;11.53;;;;;;;;;;4986308;28;20236;-84
2021/09/07 08:49:16;;;;;;;21.67;12.10;;;;;;;;;;4981869;28;20237;-84
2021/09/07 08:51:43;;;;;;;19.03;11.20;;;;;;;;;;4978747;28;20210;-84
2021/09/07 08:54:11;;;;;;;19.80;11.50;;;;;;;;;;4984439;28;20265;-83
2021/09/07 08:56:39;;;;;;;24.07;12.40;;;;;;;;;;4978276;28;20721;-84
2021/09/07 08:59:07;;;;;;;22.60;12.13;;;;;;;;;;4982749;28;20214;-82
2021/09/07 09:01:38;;;;;;;22.17;11.13;;;;;;;;;;4985213;28;20646;-84
2021/09/07 09:04:06;;;;;;;21.83;11.70;;;;;;;;;;4983389;28;20208;-83
2021/09/07 09:06:33;;;;;;;21.17;11.30;;;;;;;;;;4991648;28;20237;-83
2021/09/07 09:09:04;;;;;;;20.53;11.30;;;;;;;;;;4987323;28;20728;-83
2021/09/07 09:11:50;;;;;;;23.07;11.97;;;;;;;;;;4987934;28;20217;-83
2021/09/07 09:14:31;;;;;;;21.97;11.70;;;;;;;;;;4987366;28;20233;-82
2021/09/07 09:16:58;;;;;;;20.57;11.40;;;;;;;;;;4989297;28;21553;-84
2021/09/07 09:19:25;;;;;;;18.27;11.10;;;;;;;;;;4990414;28;20243;-80
2021/09/07 09:21:53;;;;;;;23.50;12.13;;;;;;;;;;5000629;28;20214;-82
2021/09/07 09:24:21;;;;;;;21.87;11.33;;;;;;;;;;4994497;28;20206;-81
2021/09/07 09:26:53;;;;;;;26.13;11.67;;;;;;;;;;4987259;28;20220;-84
2021/09/07 09:29:21;;;;;;;23.87;11.70;;;;;;;;;;4989042;28;20205;-84
2021/09/07 09:31:52;;;;;;;19.27;11.10;;;;;;;;;;4983491;28;20259;-83
2021/09/07 09:34:20;;;;;;;22.00;11.40;;;;;;;;;;4980478;28;20228;-84
2021/09/07 09:36:56;;;;;;;20.23;11.30;;;;;;;;;;4975322;28;20233;-84
2021/09/07 09:39:35;;;;;;;22.00;11.60;;;;;;;;;;4977459;28;20209;-84
2021/09/07 09:42:04;;;;;;;23.83;11.93;;;;;;;;;;4977768;28;20252;-83
2021/09/07 09:44:32;;;;;;;21.93;11.90;;;;;;;;;;4970849;28;20257;-82
2021/09/07 09:46:59;;;;;;;18.87;10.63;;;;;;;;;;4973000;28;20234;-83
2021/09/07 09:49:28;;;;;;;16.60;9.90;;;;;;;;;;4977430;28;20332;-83
2021/09/07 09:52:01;;;;;;;18.43;10.23;;;;;;;;;;4973477;28;20213;-83
2021/09/07 09:54:29;;;;;;;19.57;10.63;;;;;;;;;;4977008;28;20352;-83
2021/09/07 09:56:57;;;;;;;20.10;10.80;;;;;;;;;;4972308;28;20256;-83
2021/09/07 09:59:27;;;;;;;21.03;11.43;;;;;;;;;;4980790;28;20248;-84
2021/09/07 10:01:54;;;;;;;22.43;10.23;;;;;;;;;;4974703;28;20295;-82
2021/09/07 10:04:23;;;;;;;16.30;9.60;;;;;;;;;;4982088;28;20289;-84
2021/09/07 10:06:51;;;;;;;20.60;11.43;;;;;;;;;;4976664;28;20409;-83
2021/09/07 10:09:19;;;;;;;21.63;10.63;;;;;;;;;;4980213;28;20581;-84
2021/09/07 10:11:49;;;;;;;21.90;11.37;;;;;;;;;;4979868;28;20284;-84
2021/09/07 10:14:18;;;;;;;16.20;9.93;;;;;;;;;;4980898;28;20301;-83
2021/09/07 10:16:53;;;;;;;23.53;10.57;;;;;;;;;;4977045;28;20702;-84
2021/09/07 10:19:39;;;;;;;19.77;9.87;;;;;;;;;;4979432;28;20424;-83
2021/09/07 10:24:52;;;;;;;18.17;10.10;;;;;;;;;;4975672;28;20582;-83
2021/09/07 10:27:19;;;;;;;19.10;9.60;;;;;;;;;;4983041;28;20296;-83
2021/09/07 10:29:47;;;;;;;18.77;10.17;;;;;;;;;;4980985;28;20248;-83
2021/09/07 10:32:32;;;;;;;20.87;10.43;;;;;;;;;;4982257;28;20270;-84
2021/09/07 10:35:04;;;;;;;19.77;9.80;;;;;;;;;;4982380;28;20200;-83
2021/09/07 10:37:51;;;;;;;19.63;9.90;;;;;;;;;;4981331;28;20272;-84
2021/09/07 10:40:33;;;;;;;18.43;10.00;;;;;;;;;;4981333;28;20232;-85
2021/09/07 10:43:00;;;;;;;18.93;10.40;;;;;;;;;;4983111;28;20234;-84
2021/09/07 10:45:27;;;;;;;19.83;9.63;;;;;;;;;;4986265;28;20240;-84
2021/09/07 10:47:57;;;;;;;16.23;9.47;;;;;;;;;;4989035;28;20673;-84
2021/09/07 10:50:56;;;;;;;16.80;9.53;;;;;;;;;;4985168;28;20296;-84
2021/09/07 10:53:24;;;;;;;21.03;9.63;;;;;;;;;;4988547;28;20260;-83
2021/09/07 10:55:51;;;;;;;14.30;9.13;;;;;;;;;;4989146;28;20224;-84
2021/09/07 10:58:32;;;;;;;17.93;9.67;;;;;;;;;;4993111;28;20241;-84
2021/09/07 11:01:19;;;;;;;16.37;9.40;;;;;;;;;;5001979;28;20192;-82
2021/09/07 11:03:47;;;;;;;21.03;10.03;;;;;;;;;;5001571;28;20206;-83
2021/09/07 11:06:29;;;;;;;16.07;8.83;;;;;;;;;;4991943;28;20237;-84
2021/09/07 11:08:57;;;;;;;26.03;10.07;;;;;;;;;;4980066;28;20236;-84
2021/09/07 11:11:26;;;;;;;14.87;9.03;;;;;;;;;;4977591;28;20299;-84
2021/09/07 11:13:57;;;;;;;20.00;10.10;;;;;;;;;;4977739;28;20234;-83
2021/09/07 11:16:24;;;;;;;16.87;10.20;;;;;;;;;;4981632;28;20209;-83
2021/09/07 11:19:01;;;;;;;16.67;9.70;;;;;;;;;;4982784;28;20240;-83
2021/09/07 11:21:28;;;;;;;20.30;9.17;;;;;;;;;;4981373;28;20205;-83
2021/09/07 11:23:59;;;;;;;14.43;9.30;;;;;;;;;;4981390;28;20256;-84
2021/09/07 11:26:29;;;;;;;13.50;8.67;;;;;;;;;;4989222;28;20291;-84
2021/09/07 11:28:56;;;;;;;17.87;9.23;;;;;;;;;;4987908;28;20233;-84
2021/09/07 11:31:23;;;;;;;20.80;9.73;;;;;;;;;;4991443;28;20209;-84
2021/09/07 11:33:52;;;;;;;18.00;9.37;;;;;;;;;;4991487;28;20248;-84
2021/09/07 11:36:21;;;;;;;16.10;9.40;;;;;;;;;;4990816;28;20212;-83
2021/09/07 11:38:49;;;;;;;15.63;9.57;;;;;;;;;;4989782;28;20214;-83
2021/09/07 11:41:17;;;;;;;21.30;9.50;;;;;;;;;;4987192;28;20235;-83
2021/09/07 11:43:46;;;;;;;16.17;9.57;;;;;;;;;;4983358;28;20221;-83
2021/09/07 11:46:14;;;;;;;18.13;10.17;;;;;;;;;;4988900;28;20213;-82
2021/09/07 11:48:42;;;;;;;16.73;9.00;;;;;;;;;;4987731;28;20248;-82
2021/09/07 11:51:10;;;;;;;15.17;9.50;;;;;;;;;;4986192;28;20210;-83
2021/09/07 11:53:39;;;;;;;17.87;10.40;;;;;;;;;;4986710;28;20274;-83
2021/09/07 11:56:06;;;;;;;19.37;10.50;;;;;;;;;;4983296;28;20705;-83
2021/09/07 11:58:39;;;;;;;17.13;10.10;;;;;;;;;;4984357;28;20584;-83
2021/09/07 12:01:10;;;;;;;21.60;9.87;;;;;;;;;;4982782;28;20239;-84
2021/09/07 12:03:42;;;;;;;19.20;10.07;;;;;;;;;;4978783;28;20201;-83
2021/09/07 12:06:11;;;;;;;23.67;9.93;;;;;;;;;;4979379;28;20674;-83
2021/09/07 12:08:43;;;;;;;17.40;9.83;;;;;;;;;;4977425;28;20500;-83
2021/09/07 12:11:12;;;;;;;18.90;9.63;;;;;;;;;;4974538;28;20229;-83
2021/09/07 12:13:39;;;;;;;25.60;9.03;;;;;;;;;;4977568;28;20251;-85
2021/09/07 12:16:07;;;;;;;16.27;8.37;;;;;;;;;;4983123;28;20256;-82
2021/09/07 12:18:36;;;;;;;16.47;9.00;;;;;;;;;;4980728;28;20264;-83
2021/09/07 12:21:24;;;;;;;15.00;7.90;;;;;;;;;;4974867;28;20241;-83
2021/09/07 12:23:54;;;;;;;17.07;9.43;;;;;;;;;;4983452;28;20658;-83
2021/09/07 12:26:36;;;;;;;13.07;8.63;;;;;;;;;;4991268;28;20241;-82
2021/09/07 12:29:18;;;;;;;16.53;9.47;;;;;;;;;;4997639;28;20214;-83
2021/09/07 12:31:46;;;;;;;15.87;9.30;;;;;;;;;;4986983;28;20233;-82
2021/09/07 12:34:21;;;;;;;17.03;8.70;;;;;;;;;;4986147;28;20249;-83
2021/09/07 12:36:50;;;;;;;16.80;8.90;;;;;;;;;;4996408;28;20248;-82
2021/09/07 12:39:19;;;;;;;16.10;7.60;;;;;;;;;;4998961;28;20189;-82
2021/09/07 12:41:46;;;;;;;16.00;8.90;;;;;;;;;;4998877;28;20238;-82
2021/09/07 12:44:14;;;;;;;10.83;7.70;;;;;;;;;;4985905;28;20202;-83
2021/09/07 12:46:41;;;;;;;17.23;7.87;;;;;;;;;;4981231;28;20238;-83
2021/09/07 12:49:09;;;;;;;14.07;7.93;;;;;;;;;;4980299;28;20583;-82
2021/09/07 12:51:37;;;;;;;16.77;8.50;;;;;;;;;;4990326;28;20208;-84
2021/09/07 12:54:04;;;;;;;14.20;8.57;;;;;;;;;;4989256;28;20661;-83
2021/09/07 12:56:33;;;;;;;15.43;9.20;;;;;;;;;;4987393;28;20235;-84
2021/09/07 12:59:02;;;;;;;14.30;8.40;;;;;;;;;;4982925;28;20217;-85
2021/09/07 13:01:30;;;;;;;16.70;9.20;;;;;;;;;;4976834;28;20214;-84
2021/09/07 13:03:57;;;;;;;17.63;8.93;;;;;;;;;;4985484;28;20219;-82
2021/09/07 13:06:25;;;;;;;15.33;8.87;;;;;;;;;;4981834;28;20238;-85
2021/09/07 13:08:52;;;;;;;15.07;8.10;;;;;;;;;;4983852;28;20725;-85
2021/09/07 13:11:20;;;;;;;15.27;9.03;;;;;;;;;;4982507;28;20222;-86
2021/09/07 13:13:49;;;;;;;17.07;8.77;;;;;;;;;;4986321;28;20252;-84
2021/09/07 13:16:16;;;;;;;13.57;8.60;;;;;;;;;;4984997;28;20201;-85
2021/09/07 13:18:47;;;;;;;18.10;9.40;;;;;;;;;;4982099;28;20244;-82
2021/09/07 13:21:14;;;;;;;14.13;8.60;;;;;;;;;;4981769;28;20213;-85
2021/09/07 13:23:42;;;;;;;16.70;9.23;;;;;;;;;;4984732;28;20803;-85
2021/09/07 13:26:10;;;;;;;14.33;8.63;;;;;;;;;;4981521;28;20213;-85
2021/09/07 13:28:37;;;;;;;15.73;8.27;;;;;;;;;;4980195;28;20275;-84
2021/09/07 13:31:06;;;;;;;17.03;8.40;;;;;;;;;;4981566;28;20743;-84
2021/09/07 13:33:33;;;;;;;12.43;7.53;;;;;;;;;;4985759;28;20284;-85
2021/09/07 13:36:00;;;;;;;14.37;8.20;;;;;;;;;;4980452;28;20225;-84
2021/09/07 13:38:28;;;;;;;12.80;8.07;;;;;;;;;;4982793;28;20276;-86
2021/09/07 13:40:55;;;;;;;12.60;8.67;;;;;;;;;;4976980;28;20198;-85
2021/09/07 13:43:22;;;;;;;13.57;7.73;;;;;;;;;;4989002;28;20233;-84
2021/09/07 13:45:49;;;;;;;14.83;7.47;;;;;;;;;;4979911;28;20202;-85
2021/09/07 13:48:18;;;;;;;12.90;8.47;;;;;;;;;;4980240;28;20221;-84
2021/09/07 13:50:45;;;;;;;13.67;8.30;;;;;;;;;;4976322;28;20659;-85
2021/09/07 13:53:12;;;;;;;15.00;8.27;;;;;;;;;;4980469;28;20233;-84
2021/09/07 13:55:39;;;;;;;14.63;8.43;;;;;;;;;;4977841;28;20276;-84
2021/09/07 13:58:07;;;;;;;14.23;7.97;;;;;;;;;;4976385;28;20256;-85
2021/09/07 14:00:34;;;;;;;14.20;8.00;;;;;;;;;;4983185;28;20661;-84
2021/09/07 14:03:02;;;;;;;13.70;8.13;;;;;;;;;;4976566;28;20205;-84
2021/09/07 14:05:30;;;;;;;13.43;7.83;;;;;;;;;;4981904;28;20213;-84
2021/09/07 14:07:57;;;;;;;15.53;7.47;;;;;;;;;;4983677;28;20229;-84
2021/09/07 14:10:25;;;;;;;17.43;7.90;;;;;;;;;;4975756;28;20210;-84
2021/09/07 14:12:53;;;;;;;16.67;8.43;;;;;;;;;;4991043;28;20201;-83
2021/09/07 14:15:21;;;;;;;14.10;7.40;;;;;;;;;;4998427;28;20236;-84
2021/09/07 14:17:50;;;;;;;14.43;7.17;;;;;;;;;;5001498;28;20220;-82
2021/09/07 14:20:17;;;;;;;16.23;7.73;;;;;;;;;;4985026;28;20209;-85
2021/09/07 14:22:47;;;;;;;14.10;7.70;;;;;;;;;;4984087;28;20205;-83
2021/09/07 14:25:14;;;;;;;10.93;6.93;;;;;;;;;;4981632;28;20201;-85
2021/09/07 14:27:41;;;;;;;12.20;7.20;;;;;;;;;;4981091;28;20726;-85
2021/09/07 14:30:09;;;;;;;12.83;7.43;;;;;;;;;;4984114;28;20236;-83